sensor_id;sensor_type;location;lat;lon;timestamp;pressure;altitude;pressure_sealevel;temperature;humidity
71195;BME280;58908;51.426;7.714;2023-04-07T00:02:01;99560.88;;;6.26;100.00
71195;BME280;58908;51.426;7.714;2023-04-07T00:04:27;99565.94;;;6.30;100.00
71195;BME280;58908;51.426;7.714;2023-04-07T00:06:53;99566.84;;;6.29;100.00
71195;BME280;58908;51.426;7.714;2023-04-07T00:09:20;99566.84;;;6.29;100.00
71195;BME280;58908;51.426;7.714;2023-04-07T00:11:47;99565.94;;;6.30;100.00
71195;BME280;58908;51.426;7.714;2023-04-07T00:14:14;99571.06;;;6.32;100.00
71195;BME280;58908;51.426;7.714;2023-04-07T00:16:40;99571.16;;;6.30;100.00
71195;BME280;58908;51.426;7.714;2023-04-07T00:19:06;99571.03;;;6.33;100.00
71195;BME280;58908;51.426;7.714;2023-04-07T00:21:33;99573.78;;;6.30;100.00
71195;BME280;58908;51.426;7.714;2023-04-07T00:23:59;99574.56;;;6.32;100.00
71195;BME280;58908;51.426;7.714;2023-04-07T00:26:25;99569.47;;;6.29;100.00
71195;BME280;58908;51.426;7.714;2023-04-07T00:28:56;99565.06;;;6.30;100.00
71195;BME280;58908;51.426;7.714;2023-04-07T00:31:23;99568.41;;;6.33;100.00
71195;BME280;58908;51.426;7.714;2023-04-07T00:33:52;99565.72;;;6.35;100.00
71195;BME280;58908;51.426;7.714;2023-04-07T00:36:19;99562.19;;;6.36;100.00
71195;BME280;58908;51.426;7.714;2023-04-07T00:38:46;99565.00;;;6.31;100.00
71195;BME280;58908;51.426;7.714;2023-04-07T00:41:12;99557.97;;;6.32;100.00
71195;BME280;58908;51.426;7.714;2023-04-07T00:43:38;99557.88;;;6.35;100.00
71195;BME280;58908;51.426;7.714;2023-04-07T00:46:06;99556.19;;;6.34;100.00
71195;BME280;58908;51.426;7.714;2023-04-07T00:48:33;99553.47;;;6.35;100.00
71195;BME280;58908;51.426;7.714;2023-04-07T00:50:59;99552.69;;;6.33;100.00
71195;BME280;58908;51.426;7.714;2023-04-07T00:53:25;99553.59;;;6.32;100.00
71195;BME280;58908;51.426;7.714;2023-04-07T00:55:51;99543.06;;;6.34;100.00
71195;BME280;58908;51.426;7.714;2023-04-07T00:58:17;99548.22;;;6.35;100.00
71195;BME280;58908;51.426;7.714;2023-04-07T01:00:44;99545.81;;;6.31;100.00
71195;BME280;58908;51.426;7.714;2023-04-07T01:03:16;99543.91;;;6.34;100.00
71195;BME280;58908;51.426;7.714;2023-04-07T01:05:45;99540.47;;;6.34;100.00
71195;BME280;58908;51.426;7.714;2023-04-07T01:08:16;99540.38;;;6.35;100.00
71195;BME280;58908;51.426;7.714;2023-04-07T01:10:45;99536.91;;;6.35;100.00
71195;BME280;58908;51.426;7.714;2023-04-07T01:13:21;99534.16;;;6.38;100.00
71195;BME280;58908;51.426;7.714;2023-04-07T01:15:48;99537.69;;;6.37;100.00
71195;BME280;58908;51.426;7.714;2023-04-07T01:18:19;99535.91;;;6.37;100.00
71195;BME280;58908;51.426;7.714;2023-04-07T01:20:46;99534.00;;;6.41;100.00
71195;BME280;58908;51.426;7.714;2023-04-07T01:23:16;99528.72;;;6.42;100.00
71195;BME280;58908;51.426;7.714;2023-04-07T01:25:52;99528.63;;;6.44;100.00
71195;BME280;58908;51.426;7.714;2023-04-07T01:28:40;99524.47;;;6.40;100.00
71195;BME280;58908;51.426;7.714;2023-04-07T01:31:11;99525.19;;;6.43;100.00
71195;BME280;58908;51.426;7.714;2023-04-07T01:33:37;99519.88;;;6.45;100.00
71195;BME280;58908;51.426;7.714;2023-04-07T01:36:05;99529.34;;;6.47;100.00
71195;BME280;58908;51.426;7.714;2023-04-07T01:38:31;99523.28;;;6.47;100.00
71195;BME280;58908;51.426;7.714;2023-04-07T01:40:58;99522.22;;;6.51;100.00
71195;BME280;58908;51.426;7.714;2023-04-07T01:43:25;99529.25;;;6.50;100.00
71195;BME280;58908;51.426;7.714;2023-04-07T01:45:52;99527.41;;;6.52;100.00
71195;BME280;58908;51.426;7.714;2023-04-07T01:48:20;99514.41;;;6.49;100.00
71195;BME280;58908;51.426;7.714;2023-04-07T01:50:47;99527.41;;;6.52;100.00
71195;BME280;58908;51.426;7.714;2023-04-07T01:53:14;99521.38;;;6.50;100.00
71195;BME280;58908;51.426;7.714;2023-04-07T01:55:40;99526.63;;;6.50;100.00
71195;BME280;58908;51.426;7.714;2023-04-07T01:58:07;99518.75;;;6.50;100.00
71195;BME280;58908;51.426;7.714;2023-04-07T02:00:33;99525.69;;;6.51;100.00
71195;BME280;58908;51.426;7.714;2023-04-07T02:03:15;99523.19;;;6.48;100.00
71195;BME280;58908;51.426;7.714;2023-04-07T02:05:46;99521.28;;;6.52;100.00
71195;BME280;58908;51.426;7.714;2023-04-07T02:08:14;99523.84;;;6.53;100.00
71195;BME280;58908;51.426;7.714;2023-04-07T02:10:41;99517.75;;;6.53;100.00
71195;BME280;58908;51.426;7.714;2023-04-07T02:13:09;99516.06;;;6.52;100.00
71195;BME280;58908;51.426;7.714;2023-04-07T02:15:38;99514.28;;;6.52;100.00
71195;BME280;58908;51.426;7.714;2023-04-07T02:18:05;99517.69;;;6.54;100.00
71195;BME280;58908;51.426;7.714;2023-04-07T02:20:34;99523.00;;;6.53;100.00
71195;BME280;58908;51.426;7.714;2023-04-07T02:23:03;99518.63;;;6.53;100.00
71195;BME280;58908;51.426;7.714;2023-04-07T02:25:30;99516.91;;;6.52;100.00
71195;BME280;58908;51.426;7.714;2023-04-07T02:27:58;99514.22;;;6.54;100.00
71195;BME280;58908;51.426;7.714;2023-04-07T02:30:25;99518.63;;;6.53;100.00
71195;BME280;58908;51.426;7.714;2023-04-07T02:32:51;99516.00;;;6.53;100.00
71195;BME280;58908;51.426;7.714;2023-04-07T02:35:18;99513.16;;;6.58;100.00
71195;BME280;58908;51.426;7.714;2023-04-07T02:37:44;99518.22;;;6.62;100.00
71195;BME280;58908;51.426;7.714;2023-04-07T02:40:12;99517.34;;;6.62;100.00
71195;BME280;58908;51.426;7.714;2023-04-07T02:42:39;99514.66;;;6.63;100.00
71195;BME280;58908;51.426;7.714;2023-04-07T02:45:06;99518.53;;;6.55;100.00
71195;BME280;58908;51.426;7.714;2023-04-07T02:47:32;99516.72;;;6.57;100.00
71195;BME280;58908;51.426;7.714;2023-04-07T02:49:59;99515.84;;;6.56;100.00
71195;BME280;58908;51.426;7.714;2023-04-07T02:52:25;99515.00;;;6.56;100.00
71195;BME280;58908;51.426;7.714;2023-04-07T02:54:51;99517.69;;;6.54;100.00
71195;BME280;58908;51.426;7.714;2023-04-07T02:57:19;99514.09;;;6.57;100.00
71195;BME280;58908;51.426;7.714;2023-04-07T02:59:45;99514.94;;;6.57;100.00
71195;BME280;58908;51.426;7.714;2023-04-07T03:02:12;99514.00;;;6.58;100.00
71195;BME280;58908;51.426;7.714;2023-04-07T03:04:38;99515.00;;;6.56;100.00
71195;BME280;58908;51.426;7.714;2023-04-07T03:07:04;99508.03;;;6.55;100.00
71195;BME280;58908;51.426;7.714;2023-04-07T03:09:30;99514.94;;;6.57;100.00
71195;BME280;58908;51.426;7.714;2023-04-07T03:11:57;99517.50;;;6.59;100.00
71195;BME280;58908;51.426;7.714;2023-04-07T03:14:24;99516.56;;;6.60;100.00
71195;BME280;58908;51.426;7.714;2023-04-07T03:16:51;99510.41;;;6.61;100.00
71195;BME280;58908;51.426;7.714;2023-04-07T03:19:17;99514.78;;;6.60;100.00
71195;BME280;58908;51.426;7.714;2023-04-07T03:21:43;99513.03;;;6.61;100.00
71195;BME280;58908;51.426;7.714;2023-04-07T03:24:09;99509.53;;;6.60;100.00
71195;BME280;58908;51.426;7.714;2023-04-07T03:26:36;99512.88;;;6.64;100.00
71195;BME280;58908;51.426;7.714;2023-04-07T03:29:02;99509.28;;;6.66;100.00
71195;BME280;58908;51.426;7.714;2023-04-07T03:31:29;99511.13;;;6.64;100.00
71195;BME280;58908;51.426;7.714;2023-04-07T03:33:56;99509.44;;;6.63;100.00
71195;BME280;58908;51.426;7.714;2023-04-07T03:36:22;99519.13;;;6.61;100.00
71195;BME280;58908;51.426;7.714;2023-04-07T03:38:49;99517.41;;;6.60;100.00
71195;BME280;58908;51.426;7.714;2023-04-07T03:41:15;99514.88;;;6.59;100.00
71195;BME280;58908;51.426;7.714;2023-04-07T03:43:41;99508.19;;;6.52;100.00
71195;BME280;58908;51.426;7.714;2023-04-07T03:46:07;99518.63;;;6.53;100.00
71195;BME280;58908;51.426;7.714;2023-04-07T03:48:35;99516.97;;;6.51;100.00
71195;BME280;58908;51.426;7.714;2023-04-07T03:51:01;99518.63;;;6.53;100.00
71195;BME280;58908;51.426;7.714;2023-04-07T03:53:28;99516.06;;;6.52;100.00
71195;BME280;58908;51.426;7.714;2023-04-07T03:55:54;99521.28;;;6.52;100.00
71195;BME280;58908;51.426;7.714;2023-04-07T03:58:21;99510.19;;;6.47;100.00
71195;BME280;58908;51.426;7.714;2023-04-07T04:00:47;99516.41;;;6.44;100.00
71195;BME280;58908;51.426;7.714;2023-04-07T04:03:13;99519.53;;;6.52;100.00
71195;BME280;58908;51.426;7.714;2023-04-07T04:05:41;99518.53;;;6.55;100.00
71195;BME280;58908;51.426;7.714;2023-04-07T04:08:07;99523.13;;;6.50;100.00
71195;BME280;58908;51.426;7.714;2023-04-07T04:10:33;99522.16;;;6.52;100.00
71195;BME280;58908;51.426;7.714;2023-04-07T04:13:00;99518.75;;;6.50;100.00
71195;BME280;58908;51.426;7.714;2023-04-07T04:15:27;99520.56;;;6.48;100.00
71195;BME280;58908;51.426;7.714;2023-04-07T04:17:54;99530.84;;;6.53;100.00
71195;BME280;58908;51.426;7.714;2023-04-07T04:20:20;99524.63;;;6.55;100.00
71195;BME280;58908;51.426;7.714;2023-04-07T04:22:48;99523.84;;;6.53;100.00
71195;BME280;58908;51.426;7.714;2023-04-07T04:25:15;99521.09;;;6.56;100.00
71195;BME280;58908;51.426;7.714;2023-04-07T04:27:41;99529.00;;;6.55;100.00
71195;BME280;58908;51.426;7.714;2023-04-07T04:30:07;99524.69;;;6.54;100.00
71195;BME280;58908;51.426;7.714;2023-04-07T04:32:34;99522.00;;;6.55;100.00
71195;BME280;58908;51.426;7.714;2023-04-07T04:35:00;99524.63;;;6.55;100.00
71195;BME280;58908;51.426;7.714;2023-04-07T04:37:26;99524.44;;;6.60;100.00
71195;BME280;58908;51.426;7.714;2023-04-07T04:39:54;99526.13;;;6.61;100.00
71195;BME280;58908;51.426;7.714;2023-04-07T04:42:20;99524.44;;;6.60;100.00
71195;BME280;58908;51.426;7.714;2023-04-07T04:44:47;99530.44;;;6.62;100.00
71195;BME280;58908;51.426;7.714;2023-04-07T04:47:13;99532.28;;;6.60;100.00
71195;BME280;58908;51.426;7.714;2023-04-07T04:49:39;99530.59;;;6.59;100.00
71195;BME280;58908;51.426;7.714;2023-04-07T04:52:05;99532.22;;;6.61;100.00
71195;BME280;58908;51.426;7.714;2023-04-07T04:54:32;99534.97;;;6.58;100.00
71195;BME280;58908;51.426;7.714;2023-04-07T04:57:00;99536.75;;;6.58;100.00
71195;BME280;58908;51.426;7.714;2023-04-07T04:59:26;99540.22;;;6.58;100.00
71195;BME280;58908;51.426;7.714;2023-04-07T05:01:52;99533.94;;;6.62;100.00
71195;BME280;58908;51.426;7.714;2023-04-07T05:04:19;99544.31;;;6.64;100.00
71195;BME280;58908;51.426;7.714;2023-04-07T05:06:45;99545.34;;;6.61;100.00
71195;BME280;58908;51.426;7.714;2023-04-07T05:09:11;99542.63;;;6.63;100.00
71195;BME280;58908;51.426;7.714;2023-04-07T05:11:39;99542.44;;;6.67;100.00
71195;BME280;58908;51.426;7.714;2023-04-07T05:14:07;99543.34;;;6.66;100.00
71195;BME280;58908;51.426;7.714;2023-04-07T05:16:33;99539.03;;;6.65;100.00
71195;BME280;58908;51.426;7.714;2023-04-07T05:18:59;99546.03;;;6.65;100.00
71195;BME280;58908;51.426;7.714;2023-04-07T05:21:26;99549.44;;;6.67;100.00
71195;BME280;58908;51.426;7.714;2023-04-07T05:23:52;99549.66;;;6.62;100.00
71195;BME280;58908;51.426;7.714;2023-04-07T05:26:18;99554.75;;;6.65;100.00
71195;BME280;58908;51.426;7.714;2023-04-07T05:28:45;99553.25;;;6.60;100.00
71195;BME280;58908;51.426;7.714;2023-04-07T05:31:13;99560.25;;;6.59;100.00
71195;BME280;58908;51.426;7.714;2023-04-07T05:33:39;99555.81;;;6.61;100.00
71195;BME280;58908;51.426;7.714;2023-04-07T05:36:06;99554.94;;;6.61;100.00
71195;BME280;58908;51.426;7.714;2023-04-07T05:38:32;99560.03;;;6.64;100.00
71195;BME280;58908;51.426;7.714;2023-04-07T05:40:58;99564.31;;;6.66;100.00
71195;BME280;58908;51.426;7.714;2023-04-07T05:43:25;99558.00;;;6.70;100.00
71195;BME280;58908;51.426;7.714;2023-04-07T05:45:51;99561.44;;;6.72;100.00
71195;BME280;58908;51.426;7.714;2023-04-07T05:48:19;99563.91;;;6.75;100.00
71195;BME280;58908;51.426;7.714;2023-04-07T05:50:45;99566.59;;;6.74;100.00
71195;BME280;58908;51.426;7.714;2023-04-07T05:53:12;99564.63;;;6.79;100.00
71195;BME280;58908;51.426;7.714;2023-04-07T05:55:40;99567.16;;;6.80;100.00
71195;BME280;58908;51.426;7.714;2023-04-07T05:58:07;99574.00;;;6.84;100.00
71195;BME280;58908;51.426;7.714;2023-04-07T06:00:33;99576.47;;;6.87;100.00
71195;BME280;58908;51.426;7.714;2023-04-07T06:02:59;99573.13;;;6.84;100.00
71195;BME280;58908;51.426;7.714;2023-04-07T06:05:27;99572.19;;;6.85;100.00
71195;BME280;58908;51.426;7.714;2023-04-07T06:07:54;99578.38;;;6.84;100.00
71195;BME280;58908;51.426;7.714;2023-04-07T06:10:20;99580.22;;;6.82;100.00
71195;BME280;58908;51.426;7.714;2023-04-07T06:12:46;99580.94;;;6.85;100.00
71195;BME280;58908;51.426;7.714;2023-04-07T06:15:12;99579.91;;;6.88;100.00
71195;BME280;58908;51.426;7.714;2023-04-07T06:17:39;99588.34;;;6.94;100.00
71195;BME280;58908;51.426;7.714;2023-04-07T06:20:05;99586.53;;;6.96;100.00
71195;BME280;58908;51.426;7.714;2023-04-07T06:22:33;99590.78;;;6.98;100.00
71195;BME280;58908;51.426;7.714;2023-04-07T06:24:59;99590.66;;;7.02;100.00
71195;BME280;58908;51.426;7.714;2023-04-07T06:27:26;99588.59;;;7.08;100.00
71195;BME280;58908;51.426;7.714;2023-04-07T06:29:52;99592.78;;;7.12;100.00
71195;BME280;58908;51.426;7.714;2023-04-07T06:32:18;99601.31;;;7.17;100.00
71195;BME280;58908;51.426;7.714;2023-04-07T06:34:45;99585.69;;;7.14;100.00
71195;BME280;58908;51.426;7.714;2023-04-07T06:37:11;99592.41;;;7.19;100.00
71195;BME280;58908;51.426;7.714;2023-04-07T06:39:39;99594.84;;;7.24;100.00
71195;BME280;58908;51.426;7.714;2023-04-07T06:42:05;99599.09;;;7.08;100.00
71195;BME280;58908;51.426;7.714;2023-04-07T06:44:31;99602.50;;;7.10;100.00
71195;BME280;58908;51.426;7.714;2023-04-07T06:46:57;99610.22;;;7.13;100.00
71195;BME280;58908;51.426;7.714;2023-04-07T06:49:23;99599.31;;;7.22;100.00
71195;BME280;58908;51.426;7.714;2023-04-07T06:51:50;99606.81;;;7.29;100.00
71195;BME280;58908;51.426;7.714;2023-04-07T06:54:16;99605.69;;;7.35;100.00
71195;BME280;58908;51.426;7.714;2023-04-07T06:56:43;99613.19;;;7.42;100.00
71195;BME280;58908;51.426;7.714;2023-04-07T06:59:10;99609.44;;;7.48;100.00
71195;BME280;58908;51.426;7.714;2023-04-07T07:01:36;99607.59;;;7.50;100.00
71195;BME280;58908;51.426;7.714;2023-04-07T07:04:02;99608.94;;;7.58;100.00
71195;BME280;58908;51.426;7.714;2023-04-07T07:06:29;99607.78;;;7.64;100.00
71195;BME280;58908;51.426;7.714;2023-04-07T07:08:56;99615.72;;;7.62;100.00
71195;BME280;58908;51.426;7.714;2023-04-07T07:11:24;99617.38;;;7.65;100.00
71195;BME280;58908;51.426;7.714;2023-04-07T07:13:52;99615.03;;;7.59;100.00
71195;BME280;58908;51.426;7.714;2023-04-07T07:16:18;99617.53;;;7.62;100.00
71195;BME280;58908;51.426;7.714;2023-04-07T07:18:47;99620.75;;;7.67;100.00
71195;BME280;58908;51.426;7.714;2023-04-07T07:21:14;99620.44;;;7.56;100.00
71195;BME280;58908;51.426;7.714;2023-04-07T07:23:40;99625.88;;;7.51;100.00
71195;BME280;58908;51.426;7.714;2023-04-07T07:26:06;99624.13;;;7.52;100.00
71195;BME280;58908;51.426;7.714;2023-04-07T07:28:32;99632.06;;;7.50;100.00
71195;BME280;58908;51.426;7.714;2023-04-07T07:31:00;99637.25;;;7.52;100.00
71195;BME280;58908;51.426;7.714;2023-04-07T07:33:34;99639.16;;;7.67;100.00
71195;BME280;58908;51.426;7.714;2023-04-07T07:36:00;99637.22;;;7.70;100.00
71195;BME280;58908;51.426;7.714;2023-04-07T07:38:26;99640.25;;;7.80;100.00
71195;BME280;58908;51.426;7.714;2023-04-07T07:40:52;99642.31;;;7.73;100.00
71195;BME280;58908;51.426;7.714;2023-04-07T07:43:19;99653.34;;;7.63;100.00
71195;BME280;58908;51.426;7.714;2023-04-07T07:45:45;99653.97;;;7.68;100.00
71195;BME280;58908;51.426;7.714;2023-04-07T07:48:12;99655.75;;;7.67;100.00
71195;BME280;58908;51.426;7.714;2023-04-07T07:50:39;99653.75;;;7.72;100.00
71195;BME280;58908;51.426;7.714;2023-04-07T07:53:06;99658.28;;;7.69;100.00
71195;BME280;58908;51.426;7.714;2023-04-07T07:55:32;99660.91;;;7.69;100.00
71195;BME280;58908;51.426;7.714;2023-04-07T07:57:59;99657.66;;;7.64;100.00
71195;BME280;58908;51.426;7.714;2023-04-07T08:00:25;99665.59;;;7.62;100.00
71195;BME280;58908;51.426;7.714;2023-04-07T08:02:52;99668.16;;;7.64;100.00
71195;BME280;58908;51.426;7.714;2023-04-07T08:05:20;99669.88;;;7.65;100.00
71195;BME280;58908;51.426;7.714;2023-04-07T08:07:46;99673.97;;;7.70;100.00
71195;BME280;58908;51.426;7.714;2023-04-07T08:10:13;99677.22;;;7.75;100.00
71195;BME280;58908;51.426;7.714;2023-04-07T08:12:39;99679.13;;;7.72;100.00
71195;BME280;58908;51.426;7.714;2023-04-07T08:15:06;99686.53;;;7.64;100.00
71195;BME280;58908;51.426;7.714;2023-04-07T08:17:33;99687.25;;;7.67;100.00
71195;BME280;58908;51.426;7.714;2023-04-07T08:20:00;99691.44;;;7.71;100.00
71195;BME280;58908;51.426;7.714;2023-04-07T08:22:27;99687.88;;;7.72;100.00
71195;BME280;58908;51.426;7.714;2023-04-07T08:24:53;99686.41;;;7.67;100.00
71195;BME280;58908;51.426;7.714;2023-04-07T08:27:20;99692.41;;;7.69;100.00
71195;BME280;58908;51.426;7.714;2023-04-07T08:29:50;99691.50;;;7.70;100.00
71195;BME280;58908;51.426;7.714;2023-04-07T08:32:23;99701.16;;;7.69;100.00
71195;BME280;58908;51.426;7.714;2023-04-07T08:34:49;99701.53;;;7.62;100.00
71195;BME280;58908;51.426;7.714;2023-04-07T08:37:15;99705.84;;;7.63;100.00
71195;BME280;58908;51.426;7.714;2023-04-07T08:39:43;99703.00;;;7.67;100.00
71195;BME280;58908;51.426;7.714;2023-04-07T08:42:09;99707.97;;;7.73;100.00
71195;BME280;58908;51.426;7.714;2023-04-07T08:44:38;99705.34;;;7.73;100.00
71195;BME280;58908;51.426;7.714;2023-04-07T08:47:04;99705.41;;;7.72;100.00
71195;BME280;58908;51.426;7.714;2023-04-07T08:49:32;99707.97;;;7.73;100.00
71195;BME280;58908;51.426;7.714;2023-04-07T08:52:01;99712.22;;;7.76;100.00
71195;BME280;58908;51.426;7.714;2023-04-07T08:54:30;99719.25;;;7.75;100.00
71195;BME280;58908;51.426;7.714;2023-04-07T08:56:59;99723.44;;;7.79;100.00
71195;BME280;58908;51.426;7.714;2023-04-07T08:59:26;99719.19;;;7.77;100.00
71195;BME280;58908;51.426;7.714;2023-04-07T09:01:53;99724.38;;;7.78;100.00
71195;BME280;58908;51.426;7.714;2023-04-07T09:04:20;99724.00;;;7.86;100.00
71195;BME280;58908;51.426;7.714;2023-04-07T09:06:48;99723.00;;;7.88;100.00
71195;BME280;58908;51.426;7.714;2023-04-07T09:09:15;99724.78;;;7.88;100.00
71195;BME280;58908;51.426;7.714;2023-04-07T09:11:41;99727.91;;;7.96;100.00
71195;BME280;58908;51.426;7.714;2023-04-07T09:14:08;99734.09;;;7.95;100.00
71195;BME280;58908;51.426;7.714;2023-04-07T09:16:35;99736.63;;;7.96;100.00
71195;BME280;58908;51.426;7.714;2023-04-07T09:19:01;99739.41;;;7.93;100.00
71195;BME280;58908;51.426;7.714;2023-04-07T09:21:32;99741.16;;;7.93;100.00
71195;BME280;58908;51.426;7.714;2023-04-07T09:24:19;99741.25;;;7.91;100.00
71195;BME280;58908;51.426;7.714;2023-04-07T09:26:45;99743.00;;;7.91;100.00
71195;BME280;58908;51.426;7.714;2023-04-07T09:29:15;99747.84;;;8.00;100.00
71195;BME280;58908;51.426;7.714;2023-04-07T09:31:44;99743.78;;;7.93;100.00
71195;BME280;58908;51.426;7.714;2023-04-07T09:34:17;99747.91;;;7.98;100.00
71195;BME280;58908;51.426;7.714;2023-04-07T09:36:48;99745.22;;;7.81;100.00
71195;BME280;58908;51.426;7.714;2023-04-07T09:39:14;99746.28;;;7.96;100.00
71195;BME280;58908;51.426;7.714;2023-04-07T09:41:40;99746.41;;;7.93;100.00
71195;BME280;58908;51.426;7.714;2023-04-07T09:44:07;99745.28;;;7.98;100.00
71195;BME280;58908;51.426;7.714;2023-04-07T09:46:34;99748.91;;;7.96;100.00
71195;BME280;58908;51.426;7.714;2023-04-07T09:49:01;99748.00;;;7.97;100.00
71195;BME280;58908;51.426;7.714;2023-04-07T09:51:29;99750.13;;;7.89;100.00
71195;BME280;58908;51.426;7.714;2023-04-07T09:53:57;99754.72;;;8.02;100.00
71195;BME280;58908;51.426;7.714;2023-04-07T09:56:24;99748.63;;;8.02;100.00
71195;BME280;58908;51.426;7.714;2023-04-07T09:58:52;99758.84;;;8.08;100.00
71195;BME280;58908;51.426;7.714;2023-04-07T10:01:19;99754.53;;;8.07;100.00
71195;BME280;58908;51.426;7.714;2023-04-07T10:03:47;99760.69;;;7.87;100.00
71195;BME280;58908;51.426;7.714;2023-04-07T10:06:14;99755.56;;;8.03;100.00
71195;BME280;58908;51.426;7.714;2023-04-07T10:08:42;99755.09;;;8.13;100.00
71195;BME280;58908;51.426;7.714;2023-04-07T10:11:08;99757.22;;;8.05;100.00
71195;BME280;58908;51.426;7.714;2023-04-07T10:13:36;99758.13;;;8.04;100.00
71195;BME280;58908;51.426;7.714;2023-04-07T10:16:03;99757.72;;;8.13;100.00
71195;BME280;58908;51.426;7.714;2023-04-07T10:18:30;99767.50;;;8.10;100.00
71195;BME280;58908;51.426;7.714;2023-04-07T10:21:00;99766.06;;;8.03;100.00
71195;BME280;58908;51.426;7.714;2023-04-07T10:23:30;99761.00;;;8.18;100.00
71195;BME280;58908;51.426;7.714;2023-04-07T10:25:57;99768.50;;;8.26;100.00
71195;BME280;58908;51.426;7.714;2023-04-07T10:28:25;99772.06;;;8.25;100.00
71195;BME280;58908;51.426;7.714;2023-04-07T10:30:52;99771.78;;;8.31;100.00
71195;BME280;58908;51.426;7.714;2023-04-07T10:33:32;99776.94;;;8.32;100.00
71195;BME280;58908;51.426;7.714;2023-04-07T10:36:10;99775.25;;;8.31;100.00
71195;BME280;58908;51.426;7.714;2023-04-07T10:38:37;99774.78;;;8.23;100.00
71195;BME280;58908;51.426;7.714;2023-04-07T10:43:44;99785.34;;;8.22;100.00
71195;BME280;58908;51.426;7.714;2023-04-07T10:46:11;99787.94;;;8.40;100.00
71195;BME280;58908;51.426;7.714;2023-04-07T10:48:37;99792.22;;;8.43;100.00
71195;BME280;58908;51.426;7.714;2023-04-07T10:51:17;99783.84;;;8.35;100.00
71195;BME280;58908;51.426;7.714;2023-04-07T10:57:03;99790.09;;;8.32;100.00
71195;BME280;58908;51.426;7.714;2023-04-07T10:59:32;99795.44;;;8.31;100.00
71195;BME280;58908;51.426;7.714;2023-04-07T11:02:12;99797.19;;;8.30;100.00
71195;BME280;58908;51.426;7.714;2023-04-07T11:04:55;99793.00;;;8.45;100.00
71195;BME280;58908;51.426;7.714;2023-04-07T11:07:41;99796.59;;;8.42;100.00
71195;BME280;58908;51.426;7.714;2023-04-07T11:10:08;99800.91;;;8.26;100.00
71195;BME280;58908;51.426;7.714;2023-04-07T11:12:35;99799.91;;;8.29;100.00
71195;BME280;58908;51.426;7.714;2023-04-07T11:15:15;99804.66;;;8.21;100.00
71195;BME280;58908;51.426;7.714;2023-04-07T11:17:41;99802.66;;;8.26;100.00
71195;BME280;58908;51.426;7.714;2023-04-07T11:20:08;99808.28;;;8.18;100.00
71195;BME280;58908;51.426;7.714;2023-04-07T11:22:35;99806.94;;;8.28;100.00
71195;BME280;58908;51.426;7.714;2023-04-07T11:25:02;99811.41;;;8.26;100.00
71195;BME280;58908;51.426;7.714;2023-04-07T11:27:28;99811.00;;;8.35;100.00
71195;BME280;58908;51.426;7.714;2023-04-07T11:29:54;99815.94;;;8.41;100.00
71195;BME280;58908;51.426;7.714;2023-04-07T11:32:21;99818.94;;;8.34;100.00
71195;BME280;58908;51.426;7.714;2023-04-07T11:34:49;99816.00;;;8.21;100.00
71195;BME280;58908;51.426;7.714;2023-04-07T11:37:18;99818.84;;;8.17;100.00
71195;BME280;58908;51.426;7.714;2023-04-07T11:39:52;99823.69;;;8.26;100.00
71195;BME280;58908;51.426;7.714;2023-04-07T11:42:30;99829.75;;;8.28;100.00
71195;BME280;58908;51.426;7.714;2023-04-07T11:44:56;99827.75;;;8.33;100.00
71195;BME280;58908;51.426;7.714;2023-04-07T11:47:32;99830.72;;;8.25;100.00
71195;BME280;58908;51.426;7.714;2023-04-07T11:49:58;99827.44;;;8.20;100.00
71195;BME280;58908;51.426;7.714;2023-04-07T11:52:24;99830.38;;;8.33;100.00
71195;BME280;58908;51.426;7.714;2023-04-07T11:54:52;99838.09;;;8.36;100.00
71195;BME280;58908;51.426;7.714;2023-04-07T11:57:23;99839.66;;;8.21;100.00
71195;BME280;58908;51.426;7.714;2023-04-07T11:59:49;99838.69;;;8.24;100.00
71195;BME280;58908;51.426;7.714;2023-04-07T12:02:29;99839.13;;;8.33;100.00
71195;BME280;58908;51.426;7.714;2023-04-07T12:04:56;99849.19;;;8.42;100.00
71195;BME280;58908;51.426;7.714;2023-04-07T12:07:22;99844.78;;;8.43;100.00
71195;BME280;58908;51.426;7.714;2023-04-07T12:09:48;99848.50;;;8.39;100.00
71195;BME280;58908;51.426;7.714;2023-04-07T12:12:23;99850.25;;;8.57;100.00
71195;BME280;58908;51.426;7.714;2023-04-07T12:14:50;99853.44;;;8.63;100.00
71195;BME280;58908;51.426;7.714;2023-04-07T12:17:19;99850.03;;;8.43;100.00
71195;BME280;58908;51.426;7.714;2023-04-07T12:19:45;99853.84;;;8.54;100.00
71195;BME280;58908;51.426;7.714;2023-04-07T12:22:12;99853.72;;;8.57;100.00
71195;BME280;58908;51.426;7.714;2023-04-07T12:24:38;99848.81;;;8.68;100.00
71195;BME280;58908;51.426;7.714;2023-04-07T12:27:04;99862.03;;;8.67;100.00
71195;BME280;58908;51.426;7.714;2023-04-07T12:29:32;99860.25;;;8.49;100.00
71195;BME280;58908;51.426;7.714;2023-04-07T12:31:58;99857.56;;;8.50;100.00
71195;BME280;58908;51.426;7.714;2023-04-07T12:34:25;99863.66;;;8.69;100.00
71195;BME280;58908;51.426;7.714;2023-04-07T12:36:51;99860.03;;;8.53;100.00
71195;BME280;58908;51.426;7.714;2023-04-07T12:39:17;99860.94;;;8.71;100.00
71195;BME280;58908;51.426;7.714;2023-04-07T12:41:44;99867.00;;;8.73;100.00
71195;BME280;58908;51.426;7.714;2023-04-07T12:44:11;99869.22;;;8.45;100.00
71195;BME280;58908;51.426;7.714;2023-04-07T12:46:39;99868.38;;;8.63;100.00
71195;BME280;58908;51.426;7.714;2023-04-07T12:49:05;99870.91;;;8.46;100.00
71195;BME280;58908;51.426;7.714;2023-04-07T12:51:32;99871.34;;;8.37;100.00
71195;BME280;58908;51.426;7.714;2023-04-07T12:53:58;99872.78;;;8.44;100.00
71195;BME280;58908;51.426;7.714;2023-04-07T12:56:25;99872.06;;;8.40;100.00
71195;BME280;58908;51.426;7.714;2023-04-07T12:58:52;99873.34;;;8.50;100.00
71195;BME280;58908;51.426;7.714;2023-04-07T13:01:19;99868.94;;;8.51;100.00
71195;BME280;58908;51.426;7.714;2023-04-07T13:03:46;99876.03;;;8.49;100.00
71195;BME280;58908;51.426;7.714;2023-04-07T13:06:13;99874.66;;;8.59;100.00
71195;BME280;58908;51.426;7.714;2023-04-07T13:08:39;99878.66;;;8.49;100.00